sensor_id;sensor_type;location;lat;lon;timestamp;temperature;humidity
32366;DHT22;18837;46.832;16.838;2022-09-13T00:01:21;19.30;79.40
32366;DHT22;18837;46.832;16.838;2022-09-13T00:03:47;19.30;78.90
32366;DHT22;18837;46.832;16.838;2022-09-13T00:06:15;19.30;78.40
32366;DHT22;18837;46.832;16.838;2022-09-13T00:08:42;19.30;78.40
32366;DHT22;18837;46.832;16.838;2022-09-13T00:13:58;19.30;79.20
32366;DHT22;18837;46.832;16.838;2022-09-13T00:16:26;19.30;78.10
32366;DHT22;18837;46.832;16.838;2022-09-13T00:18:52;19.40;78.10
32366;DHT22;18837;46.832;16.838;2022-09-13T00:21:20;19.30;78.10
32366;DHT22;18837;46.832;16.838;2022-09-13T00:23:47;19.30;78.00
32366;DHT22;18837;46.832;16.838;2022-09-13T00:26:15;19.30;78.20
32366;DHT22;18837;46.832;16.838;2022-09-13T00:29:00;19.30;78.50
32366;DHT22;18837;46.832;16.838;2022-09-13T00:31:38;19.30;78.60
32366;DHT22;18837;46.832;16.838;2022-09-13T00:34:04;19.30;78.60
32366;DHT22;18837;46.832;16.838;2022-09-13T00:36:29;19.30;79.30
32366;DHT22;18837;46.832;16.838;2022-09-13T00:38:55;19.20;78.60
32366;DHT22;18837;46.832;16.838;2022-09-13T00:41:21;19.20;79.20
32366;DHT22;18837;46.832;16.838;2022-09-13T00:43:59;19.20;79.10
32366;DHT22;18837;46.832;16.838;2022-09-13T00:46:46;19.20;79.00
32366;DHT22;18837;46.832;16.838;2022-09-13T00:51:41;19.10;78.90
32366;DHT22;18837;46.832;16.838;2022-09-13T00:54:09;19.10;79.40
32366;DHT22;18837;46.832;16.838;2022-09-13T00:56:40;19.20;79.40
32366;DHT22;18837;46.832;16.838;2022-09-13T00:59:21;19.20;79.30
32366;DHT22;18837;46.832;16.838;2022-09-13T01:01:55;19.20;79.20
32366;DHT22;18837;46.832;16.838;2022-09-13T01:04:44;19.20;79.00
32366;DHT22;18837;46.832;16.838;2022-09-13T01:07:14;19.20;79.70
32366;DHT22;18837;46.832;16.838;2022-09-13T01:09:44;19.20;78.50
32366;DHT22;18837;46.832;16.838;2022-09-13T01:15:09;19.20;79.40
32366;DHT22;18837;46.832;16.838;2022-09-13T01:17:36;19.20;78.60
32366;DHT22;18837;46.832;16.838;2022-09-13T01:20:05;19.20;78.40
32366;DHT22;18837;46.832;16.838;2022-09-13T01:23:09;19.20;78.70
32366;DHT22;18837;46.832;16.838;2022-09-13T01:31:41;19.20;79.90
32366;DHT22;18837;46.832;16.838;2022-09-13T01:40:55;19.10;80.10
32366;DHT22;18837;46.832;16.838;2022-09-13T01:48:58;19.10;80.40
32366;DHT22;18837;46.832;16.838;2022-09-13T01:54:29;19.10;79.60
32366;DHT22;18837;46.832;16.838;2022-09-13T02:00:08;19.10;80.30
32366;DHT22;18837;46.832;16.838;2022-09-13T02:05:43;19.10;80.20
32366;DHT22;18837;46.832;16.838;2022-09-13T02:08:41;19.00;79.40
32366;DHT22;18837;46.832;16.838;2022-09-13T02:11:14;19.10;79.40
32366;DHT22;18837;46.832;16.838;2022-09-13T02:16:39;19.10;80.20
32366;DHT22;18837;46.832;16.838;2022-09-13T02:19:13;19.00;80.10
32366;DHT22;18837;46.832;16.838;2022-09-13T02:21:43;19.00;79.30
32366;DHT22;18837;46.832;16.838;2022-09-13T02:24:15;19.00;79.30
32366;DHT22;18837;46.832;16.838;2022-09-13T02:26:44;19.00;79.30
32366;DHT22;18837;46.832;16.838;2022-09-13T02:29:14;19.00;79.20
32366;DHT22;18837;46.832;16.838;2022-09-13T02:31:57;19.00;79.20
32366;DHT22;18837;46.832;16.838;2022-09-13T02:34:37;19.00;79.40
32366;DHT22;18837;46.832;16.838;2022-09-13T02:37:03;18.90;80.20
32366;DHT22;18837;46.832;16.838;2022-09-13T02:39:32;18.90;79.60
32366;DHT22;18837;46.832;16.838;2022-09-13T02:44:56;18.80;79.70
32366;DHT22;18837;46.832;16.838;2022-09-13T02:51:06;18.80;80.00
32366;DHT22;18837;46.832;16.838;2022-09-13T02:53:54;18.70;80.50
32366;DHT22;18837;46.832;16.838;2022-09-13T02:56:53;18.80;80.60
32366;DHT22;18837;46.832;16.838;2022-09-13T02:59:22;18.80;80.60
32366;DHT22;18837;46.832;16.838;2022-09-13T03:02:01;18.80;79.60
32366;DHT22;18837;46.832;16.838;2022-09-13T03:04:34;18.80;79.90
32366;DHT22;18837;46.832;16.838;2022-09-13T03:07:01;18.80;79.50
32366;DHT22;18837;46.832;16.838;2022-09-13T03:09:29;18.80;79.70
32366;DHT22;18837;46.832;16.838;2022-09-13T03:17:20;18.80;80.20
32366;DHT22;18837;46.832;16.838;2022-09-13T03:29:16;18.70;79.90
32366;DHT22;18837;46.832;16.838;2022-09-13T03:34:46;18.60;80.20
32366;DHT22;18837;46.832;16.838;2022-09-13T03:37:37;18.60;80.10
32366;DHT22;18837;46.832;16.838;2022-09-13T03:43:41;18.50;80.20
32366;DHT22;18837;46.832;16.838;2022-09-13T03:46:10;18.50;79.60
32366;DHT22;18837;46.832;16.838;2022-09-13T03:48:39;18.50;79.50
32366;DHT22;18837;46.832;16.838;2022-09-13T03:51:06;18.50;79.40
32366;DHT22;18837;46.832;16.838;2022-09-13T03:53:36;18.50;79.70
32366;DHT22;18837;46.832;16.838;2022-09-13T03:56:20;18.50;79.50
32366;DHT22;18837;46.832;16.838;2022-09-13T03:58:55;18.50;79.70
32366;DHT22;18837;46.832;16.838;2022-09-13T04:01:22;18.50;79.80
32366;DHT22;18837;46.832;16.838;2022-09-13T04:03:48;18.50;79.60
32366;DHT22;18837;46.832;16.838;2022-09-13T04:06:14;18.50;79.60
32366;DHT22;18837;46.832;16.838;2022-09-13T04:08:40;18.50;79.60
32366;DHT22;18837;46.832;16.838;2022-09-13T04:11:06;18.50;79.60
32366;DHT22;18837;46.832;16.838;2022-09-13T04:13:39;18.50;79.60
32366;DHT22;18837;46.832;16.838;2022-09-13T04:16:06;18.50;79.40
32366;DHT22;18837;46.832;16.838;2022-09-13T04:18:33;18.50;79.50
32366;DHT22;18837;46.832;16.838;2022-09-13T04:21:00;18.50;79.20
32366;DHT22;18837;46.832;16.838;2022-09-13T04:23:28;18.50;79.60
32366;DHT22;18837;46.832;16.838;2022-09-13T04:25:54;18.50;78.70
32366;DHT22;18837;46.832;16.838;2022-09-13T04:28:20;18.40;78.80
32366;DHT22;18837;46.832;16.838;2022-09-13T04:30:48;18.40;79.30
32366;DHT22;18837;46.832;16.838;2022-09-13T04:33:26;18.30;79.80
32366;DHT22;18837;46.832;16.838;2022-09-13T04:35:58;18.40;79.30
32366;DHT22;18837;46.832;16.838;2022-09-13T04:38:24;18.30;79.40
32366;DHT22;18837;46.832;16.838;2022-09-13T04:40:54;18.30;79.20
32366;DHT22;18837;46.832;16.838;2022-09-13T04:43:21;18.20;79.50
32366;DHT22;18837;46.832;16.838;2022-09-13T04:45:47;18.20;79.40
32366;DHT22;18837;46.832;16.838;2022-09-13T04:48:12;18.20;79.60
32366;DHT22;18837;46.832;16.838;2022-09-13T04:50:38;18.20;79.70
32366;DHT22;18837;46.832;16.838;2022-09-13T04:53:04;18.20;79.90
32366;DHT22;18837;46.832;16.838;2022-09-13T04:55:30;18.20;79.80
32366;DHT22;18837;46.832;16.838;2022-09-13T04:57:55;18.20;79.80
32366;DHT22;18837;46.832;16.838;2022-09-13T05:00:22;18.30;79.70
32366;DHT22;18837;46.832;16.838;2022-09-13T05:02:54;18.20;79.40
32366;DHT22;18837;46.832;16.838;2022-09-13T05:05:19;18.30;80.30
32366;DHT22;18837;46.832;16.838;2022-09-13T05:07:49;18.30;79.40
32366;DHT22;18837;46.832;16.838;2022-09-13T05:10:14;18.30;79.30
32366;DHT22;18837;46.832;16.838;2022-09-13T05:12:40;18.30;79.30
32366;DHT22;18837;46.832;16.838;2022-09-13T05:15:06;18.30;79.60
32366;DHT22;18837;46.832;16.838;2022-09-13T05:17:32;18.30;79.50
32366;DHT22;18837;46.832;16.838;2022-09-13T05:20:01;18.30;78.90
32366;DHT22;18837;46.832;16.838;2022-09-13T05:22:28;18.30;79.20
32366;DHT22;18837;46.832;16.838;2022-09-13T05:24:54;18.20;78.80
32366;DHT22;18837;46.832;16.838;2022-09-13T05:27:20;18.20;79.40
32366;DHT22;18837;46.832;16.838;2022-09-13T05:29:45;18.20;79.50
32366;DHT22;18837;46.832;16.838;2022-09-13T05:32:11;18.10;79.20
32366;DHT22;18837;46.832;16.838;2022-09-13T05:34:46;18.10;79.30
32366;DHT22;18837;46.832;16.838;2022-09-13T05:37:27;18.10;79.40
32366;DHT22;18837;46.832;16.838;2022-09-13T05:39:53;18.10;79.40
32366;DHT22;18837;46.832;16.838;2022-09-13T05:42:18;18.10;79.50
32366;DHT22;18837;46.832;16.838;2022-09-13T05:44:44;18.10;79.30
32366;DHT22;18837;46.832;16.838;2022-09-13T05:47:12;18.10;79.40
32366;DHT22;18837;46.832;16.838;2022-09-13T05:49:38;18.10;79.90
32366;DHT22;18837;46.832;16.838;2022-09-13T05:52:04;18.10;80.00
32366;DHT22;18837;46.832;16.838;2022-09-13T05:54:35;18.10;79.60
32366;DHT22;18837;46.832;16.838;2022-09-13T05:57:02;18.10;80.20
32366;DHT22;18837;46.832;16.838;2022-09-13T05:59:28;18.20;79.60
32366;DHT22;18837;46.832;16.838;2022-09-13T06:01:53;18.20;79.40
32366;DHT22;18837;46.832;16.838;2022-09-13T06:04:19;18.20;79.40
32366;DHT22;18837;46.832;16.838;2022-09-13T06:06:45;18.20;79.60
32366;DHT22;18837;46.832;16.838;2022-09-13T06:09:19;18.20;79.30
32366;DHT22;18837;46.832;16.838;2022-09-13T06:12:04;18.20;79.60
32366;DHT22;18837;46.832;16.838;2022-09-13T06:14:29;18.20;79.30
32366;DHT22;18837;46.832;16.838;2022-09-13T06:16:55;18.20;79.50
32366;DHT22;18837;46.832;16.838;2022-09-13T06:19:21;18.20;79.40
32366;DHT22;18837;46.832;16.838;2022-09-13T06:21:47;18.20;79.20
32366;DHT22;18837;46.832;16.838;2022-09-13T06:24:13;18.20;79.30
32366;DHT22;18837;46.832;16.838;2022-09-13T06:26:39;18.10;79.40
32366;DHT22;18837;46.832;16.838;2022-09-13T06:29:10;18.10;79.50
32366;DHT22;18837;46.832;16.838;2022-09-13T06:31:37;18.10;79.50
32366;DHT22;18837;46.832;16.838;2022-09-13T06:34:10;18.10;79.40
32366;DHT22;18837;46.832;16.838;2022-09-13T06:36:40;18.10;79.70
32366;DHT22;18837;46.832;16.838;2022-09-13T06:39:06;18.10;79.90
32366;DHT22;18837;46.832;16.838;2022-09-13T06:41:32;18.10;79.70
32366;DHT22;18837;46.832;16.838;2022-09-13T06:44:01;18.10;79.90
32366;DHT22;18837;46.832;16.838;2022-09-13T06:46:34;18.10;79.80
32366;DHT22;18837;46.832;16.838;2022-09-13T06:49:02;18.10;79.70
32366;DHT22;18837;46.832;16.838;2022-09-13T06:51:28;18.20;79.80
32366;DHT22;18837;46.832;16.838;2022-09-13T06:53:54;18.20;79.60
32366;DHT22;18837;46.832;16.838;2022-09-13T06:56:35;18.20;79.60
32366;DHT22;18837;46.832;16.838;2022-09-13T06:59:05;18.20;80.50
32366;DHT22;18837;46.832;16.838;2022-09-13T07:01:39;18.20;79.70
32366;DHT22;18837;46.832;16.838;2022-09-13T07:04:11;18.30;79.70
32366;DHT22;18837;46.832;16.838;2022-09-13T07:06:42;18.20;79.60
32366;DHT22;18837;46.832;16.838;2022-09-13T07:09:12;18.30;80.40
32366;DHT22;18837;46.832;16.838;2022-09-13T07:11:39;18.30;79.60
32366;DHT22;18837;46.832;16.838;2022-09-13T07:14:06;18.30;79.50
32366;DHT22;18837;46.832;16.838;2022-09-13T07:16:34;18.40;79.60
32366;DHT22;18837;46.832;16.838;2022-09-13T07:19:21;18.40;79.60
32366;DHT22;18837;46.832;16.838;2022-09-13T07:21:48;18.40;80.00
32366;DHT22;18837;46.832;16.838;2022-09-13T07:24:15;18.40;79.50
32366;DHT22;18837;46.832;16.838;2022-09-13T07:26:41;18.40;79.70
32366;DHT22;18837;46.832;16.838;2022-09-13T07:29:13;18.40;79.80
32366;DHT22;18837;46.832;16.838;2022-09-13T07:31:42;18.40;80.50
32366;DHT22;18837;46.832;16.838;2022-09-13T07:34:16;18.40;79.70
32366;DHT22;18837;46.832;16.838;2022-09-13T07:36:42;18.40;79.60
32366;DHT22;18837;46.832;16.838;2022-09-13T07:39:09;18.40;79.70
32366;DHT22;18837;46.832;16.838;2022-09-13T07:41:35;18.40;79.80
32366;DHT22;18837;46.832;16.838;2022-09-13T07:44:02;18.50;79.90
32366;DHT22;18837;46.832;16.838;2022-09-13T07:46:31;18.50;79.60
32366;DHT22;18837;46.832;16.838;2022-09-13T07:48:58;18.60;79.40
32366;DHT22;18837;46.832;16.838;2022-09-13T07:51:33;18.60;79.30
32366;DHT22;18837;46.832;16.838;2022-09-13T07:54:02;18.70;79.10
32366;DHT22;18837;46.832;16.838;2022-09-13T07:56:36;18.80;78.80
32366;DHT22;18837;46.832;16.838;2022-09-13T07:59:04;18.90;78.70
32366;DHT22;18837;46.832;16.838;2022-09-13T08:01:35;19.00;78.60
32366;DHT22;18837;46.832;16.838;2022-09-13T08:04:04;19.10;78.60
32366;DHT22;18837;46.832;16.838;2022-09-13T08:06:32;19.10;78.50
32366;DHT22;18837;46.832;16.838;2022-09-13T08:08:58;19.20;78.20
32366;DHT22;18837;46.832;16.838;2022-09-13T08:11:44;19.30;78.30
32366;DHT22;18837;46.832;16.838;2022-09-13T08:14:13;19.40;78.90
32366;DHT22;18837;46.832;16.838;2022-09-13T08:16:39;19.50;77.80
32366;DHT22;18837;46.832;16.838;2022-09-13T08:19:06;19.50;77.70
32366;DHT22;18837;46.832;16.838;2022-09-13T08:21:38;19.60;77.70
32366;DHT22;18837;46.832;16.838;2022-09-13T08:24:06;19.60;77.90
32366;DHT22;18837;46.832;16.838;2022-09-13T08:26:38;19.60;78.40
32366;DHT22;18837;46.832;16.838;2022-09-13T08:29:16;19.60;78.20
32366;DHT22;18837;46.832;16.838;2022-09-13T08:31:43;19.60;78.40
32366;DHT22;18837;46.832;16.838;2022-09-13T08:34:13;19.60;78.60
32366;DHT22;18837;46.832;16.838;2022-09-13T08:36:39;19.60;80.00
32366;DHT22;18837;46.832;16.838;2022-09-13T08:39:09;19.60;80.20
32366;DHT22;18837;46.832;16.838;2022-09-13T08:46:41;19.60;80.50
32366;DHT22;18837;46.832;16.838;2022-09-13T08:49:25;19.60;80.50
32366;DHT22;18837;46.832;16.838;2022-09-13T08:54:42;19.70;81.10
32366;DHT22;18837;46.832;16.838;2022-09-13T09:02:55;19.90;81.10
32366;DHT22;18837;46.832;16.838;2022-09-13T09:05:31;20.00;79.80
32366;DHT22;18837;46.832;16.838;2022-09-13T09:08:03;20.10;79.50
32366;DHT22;18837;46.832;16.838;2022-09-13T09:10:48;20.20;79.10
32366;DHT22;18837;46.832;16.838;2022-09-13T09:13:21;20.30;78.60
32366;DHT22;18837;46.832;16.838;2022-09-13T09:16:12;20.40;79.40
32366;DHT22;18837;46.832;16.838;2022-09-13T09:19:11;20.50;78.30
32366;DHT22;18837;46.832;16.838;2022-09-13T09:21:44;20.60;79.10
32366;DHT22;18837;46.832;16.838;2022-09-13T09:24:21;20.70;78.20
32366;DHT22;18837;46.832;16.838;2022-09-13T09:26:47;20.70;77.60
32366;DHT22;18837;46.832;16.838;2022-09-13T09:29:21;20.80;77.70
32366;DHT22;18837;46.832;16.838;2022-09-13T09:35:18;20.80;79.30
32366;DHT22;18837;46.832;16.838;2022-09-13T09:37:28;20.70;79.20
32366;DHT22;18837;46.832;16.838;2022-09-13T09:39:58;20.70;78.60
32366;DHT22;18837;46.832;16.838;2022-09-13T09:42:29;20.70;79.40
32366;DHT22;18837;46.832;16.838;2022-09-13T09:45:03;20.70;79.50
32366;DHT22;18837;46.832;16.838;2022-09-13T09:47:41;20.70;80.00
32366;DHT22;18837;46.832;16.838;2022-09-13T09:50:28;20.70;80.50
32366;DHT22;18837;46.832;16.838;2022-09-13T09:53:15;20.80;80.90
32366;DHT22;18837;46.832;16.838;2022-09-13T09:58:13;20.80;81.10
32366;DHT22;18837;46.832;16.838;2022-09-13T10:00:54;20.80;80.30
32366;DHT22;18837;46.832;16.838;2022-09-13T10:03:25;20.80;81.20
32366;DHT22;18837;46.832;16.838;2022-09-13T10:08:32;20.90;79.20
32366;DHT22;18837;46.832;16.838;2022-09-13T10:11:02;21.10;78.90
32366;DHT22;18837;46.832;16.838;2022-09-13T10:13:29;21.20;78.60
32366;DHT22;18837;46.832;16.838;2022-09-13T10:18:26;21.40;79.00
32366;DHT22;18837;46.832;16.838;2022-09-13T10:23:45;21.50;77.70
32366;DHT22;18837;46.832;16.838;2022-09-13T10:26:24;21.60;77.40
32366;DHT22;18837;46.832;16.838;2022-09-13T10:29:14;21.70;77.60
32366;DHT22;18837;46.832;16.838;2022-09-13T10:31:43;21.70;77.60
32366;DHT22;18837;46.832;16.838;2022-09-13T10:36:54;21.80;78.40
32366;DHT22;18837;46.832;16.838;2022-09-13T10:39:23;21.80;78.30
32366;DHT22;18837;46.832;16.838;2022-09-13T10:47:03;21.70;79.30
32366;DHT22;18837;46.832;16.838;2022-09-13T10:49:47;21.70;78.20
32366;DHT22;18837;46.832;16.838;2022-09-13T10:52:32;21.70;80.10
32366;DHT22;18837;46.832;16.838;2022-09-13T10:57:54;21.70;81.30
32366;DHT22;18837;46.832;16.838;2022-09-13T11:31:53;22.50;78.30
32366;DHT22;18837;46.832;16.838;2022-09-13T11:34:54;22.50;77.20
32366;DHT22;18837;46.832;16.838;2022-09-13T11:38:03;22.60;77.80
32366;DHT22;18837;46.832;16.838;2022-09-13T11:54:28;22.70;77.80
32366;DHT22;18837;46.832;16.838;2022-09-13T11:57:01;22.70;78.80
32366;DHT22;18837;46.832;16.838;2022-09-13T12:05:04;22.60;79.60
32366;DHT22;18837;46.832;16.838;2022-09-13T12:07:42;22.60;79.20
32366;DHT22;18837;46.832;16.838;2022-09-13T13:04:39;23.50;75.00
32366;DHT22;18837;46.832;16.838;2022-09-13T13:07:18;23.40;73.00
32366;DHT22;18837;46.832;16.838;2022-09-13T13:09:47;23.40;72.50
32366;DHT22;18837;46.832;16.838;2022-09-13T13:12:32;23.40;72.90
32366;DHT22;18837;46.832;16.838;2022-09-13T13:15:53;23.40;73.30
32366;DHT22;18837;46.832;16.838;2022-09-13T13:17:53;23.40;72.40
32366;DHT22;18837;46.832;16.838;2022-09-13T13:20:44;23.40;71.70
32366;DHT22;18837;46.832;16.838;2022-09-13T13:23:28;23.30;71.50
32366;DHT22;18837;46.832;16.838;2022-09-13T13:42:00;23.50;71.70
32366;DHT22;18837;46.832;16.838;2022-09-13T13:58:46;23.70;71.90
32366;DHT22;18837;46.832;16.838;2022-09-13T14:01:19;23.80;71.00
32366;DHT22;18837;46.832;16.838;2022-09-13T14:19:50;23.80;70.50
32366;DHT22;18837;46.832;16.838;2022-09-13T14:22:23;23.80;70.80
32366;DHT22;18837;46.832;16.838;2022-09-13T14:24:54;23.70;71.30
32366;DHT22;18837;46.832;16.838;2022-09-13T14:27:29;23.70;71.20
32366;DHT22;18837;46.832;16.838;2022-09-13T14:29:58;23.70;71.70
32366;DHT22;18837;46.832;16.838;2022-09-13T14:32:27;23.70;71.90
32366;DHT22;18837;46.832;16.838;2022-09-13T14:35:26;23.60;72.10
32366;DHT22;18837;46.832;16.838;2022-09-13T14:37:50;23.60;72.30
32366;DHT22;18837;46.832;16.838;2022-09-13T14:40:21;23.60;72.20
32366;DHT22;18837;46.832;16.838;2022-09-13T14:42:49;23.60;72.30
32366;DHT22;18837;46.832;16.838;2022-09-13T14:50:24;23.50;72.20
32366;DHT22;18837;46.832;16.838;2022-09-13T14:52:58;23.60;72.30
32366;DHT22;18837;46.832;16.838;2022-09-13T14:55:32;23.70;71.90
32366;DHT22;18837;46.832;16.838;2022-09-13T14:58:01;23.70;71.70
32366;DHT22;18837;46.832;16.838;2022-09-13T15:00:30;23.70;71.60
32366;DHT22;18837;46.832;16.838;2022-09-13T15:03:01;23.80;71.30
32366;DHT22;18837;46.832;16.838;2022-09-13T15:05:31;23.80;71.30
32366;DHT22;18837;46.832;16.838;2022-09-13T15:07:57;23.80;71.30
32366;DHT22;18837;46.832;16.838;2022-09-13T15:10:28;23.80;71.20
32366;DHT22;18837;46.832;16.838;2022-09-13T15:17:58;23.80;71.00
32366;DHT22;18837;46.832;16.838;2022-09-13T15:20:27;23.90;70.90
32366;DHT22;18837;46.832;16.838;2022-09-13T15:22:53;23.90;71.10
32366;DHT22;18837;46.832;16.838;2022-09-13T15:25:26;23.90;71.40
32366;DHT22;18837;46.832;16.838;2022-09-13T15:27:53;23.90;71.60
32366;DHT22;18837;46.832;16.838;2022-09-13T15:30:28;23.90;71.10
32366;DHT22;18837;46.832;16.838;2022-09-13T15:35:41;23.90;71.40
32366;DHT22;18837;46.832;16.838;2022-09-13T15:38:26;23.80;71.40
32366;DHT22;18837;46.832;16.838;2022-09-13T15:41:13;23.70;72.20
32366;DHT22;18837;46.832;16.838;2022-09-13T15:43:40;23.70;72.30
32366;DHT22;18837;46.832;16.838;2022-09-13T15:46:11;23.60;71.90
32366;DHT22;18837;46.832;16.838;2022-09-13T15:48:38;23.50;71.80
32366;DHT22;18837;46.832;16.838;2022-09-13T15:51:12;23.50;72.50
32366;DHT22;18837;46.832;16.838;2022-09-13T15:53:41;23.50;72.50
32366;DHT22;18837;46.832;16.838;2022-09-13T15:56:08;23.40;72.60
32366;DHT22;18837;46.832;16.838;2022-09-13T15:58:36;23.30;72.90
32366;DHT22;18837;46.832;16.838;2022-09-13T16:01:03;23.30;72.80
32366;DHT22;18837;46.832;16.838;2022-09-13T16:03:29;23.20;73.10
32366;DHT22;18837;46.832;16.838;2022-09-13T16:05:55;23.20;74.00
32366;DHT22;18837;46.832;16.838;2022-09-13T16:08:22;23.20;72.90
32366;DHT22;18837;46.832;16.838;2022-09-13T16:10:50;23.20;72.80
32366;DHT22;18837;46.832;16.838;2022-09-13T16:13:15;23.20;72.80
32366;DHT22;18837;46.832;16.838;2022-09-13T16:15:41;23.30;72.50
32366;DHT22;18837;46.832;16.838;2022-09-13T16:18:07;23.30;72.40
32366;DHT22;18837;46.832;16.838;2022-09-13T16:20:34;23.30;72.30
32366;DHT22;18837;46.832;16.838;2022-09-13T16:22:59;23.40;72.40
32366;DHT22;18837;46.832;16.838;2022-09-13T16:25:25;23.40;72.20
32366;DHT22;18837;46.832;16.838;2022-09-13T16:27:51;23.40;72.10
32366;DHT22;18837;46.832;16.838;2022-09-13T16:30:19;23.40;71.60
32366;DHT22;18837;46.832;16.838;2022-09-13T16:32:47;23.40;71.70
32366;DHT22;18837;46.832;16.838;2022-09-13T16:35:13;23.40;71.70
32366;DHT22;18837;46.832;16.838;2022-09-13T16:37:40;23.40;71.90
32366;DHT22;18837;46.832;16.838;2022-09-13T16:40:06;23.40;71.90
32366;DHT22;18837;46.832;16.838;2022-09-13T16:42:34;23.30;71.70
32366;DHT22;18837;46.832;16.838;2022-09-13T16:45:01;23.30;71.40
32366;DHT22;18837;46.832;16.838;2022-09-13T16:47:28;23.30;71.60
32366;DHT22;18837;46.832;16.838;2022-09-13T16:49:54;23.30;71.80
32366;DHT22;18837;46.832;16.838;2022-09-13T16:52:20;23.30;71.60
32366;DHT22;18837;46.832;16.838;2022-09-13T16:54:45;23.20;71.50
32366;DHT22;18837;46.832;16.838;2022-09-13T16:57:14;23.20;71.80
32366;DHT22;18837;46.832;16.838;2022-09-13T16:59:40;23.10;71.90
32366;DHT22;18837;46.832;16.838;2022-09-13T17:02:08;23.00;72.40
32366;DHT22;18837;46.832;16.838;2022-09-13T17:04:41;22.90;72.30
32366;DHT22;18837;46.832;16.838;2022-09-13T17:07:06;22.80;72.70
32366;DHT22;18837;46.832;16.838;2022-09-13T17:09:33;22.80;72.80
32366;DHT22;18837;46.832;16.838;2022-09-13T17:12:00;22.70;73.10
32366;DHT22;18837;46.832;16.838;2022-09-13T17:14:26;22.70;73.50
32366;DHT22;18837;46.832;16.838;2022-09-13T17:16:53;22.60;73.50
32366;DHT22;18837;46.832;16.838;2022-09-13T17:19:22;22.50;73.40
32366;DHT22;18837;46.832;16.838;2022-09-13T17:21:49;22.50;73.60
32366;DHT22;18837;46.832;16.838;2022-09-13T17:24:27;22.50;73.70
32366;DHT22;18837;46.832;16.838;2022-09-13T17:26:54;22.50;73.90
32366;DHT22;18837;46.832;16.838;2022-09-13T17:29:23;22.40;74.00
32366;DHT22;18837;46.832;16.838;2022-09-13T17:31:59;22.50;74.20
32366;DHT22;18837;46.832;16.838;2022-09-13T17:34:25;22.60;74.00
32366;DHT22;18837;46.832;16.838;2022-09-13T17:36:51;22.60;73.70
32366;DHT22;18837;46.832;16.838;2022-09-13T17:39:29;22.60;73.80
32366;DHT22;18837;46.832;16.838;2022-09-13T17:41:57;22.70;73.80
32366;DHT22;18837;46.832;16.838;2022-09-13T17:44:23;22.70;73.50
32366;DHT22;18837;46.832;16.838;2022-09-13T17:46:49;22.70;73.40
32366;DHT22;18837;46.832;16.838;2022-09-13T17:49:14;22.80;73.30
32366;DHT22;18837;46.832;16.838;2022-09-13T17:51:40;22.80;73.10
32366;DHT22;18837;46.832;16.838;2022-09-13T17:54:26;22.80;73.00
32366;DHT22;18837;46.832;16.838;2022-09-13T17:57:10;22.80;73.50
32366;DHT22;18837;46.832;16.838;2022-09-13T17:59:52;22.80;73.00
32366;DHT22;18837;46.832;16.838;2022-09-13T18:02:19;22.80;72.90
32366;DHT22;18837;46.832;16.838;2022-09-13T18:04:46;22.80;73.00
32366;DHT22;18837;46.832;16.838;2022-09-13T18:07:15;22.80;72.80
32366;DHT22;18837;46.832;16.838;2022-09-13T18:09:41;22.80;73.00
32366;DHT22;18837;46.832;16.838;2022-09-13T18:12:08;22.80;72.90
32366;DHT22;18837;46.832;16.838;2022-09-13T18:14:39;22.80;73.00
32366;DHT22;18837;46.832;16.838;2022-09-13T18:17:05;22.70;73.10
32366;DHT22;18837;46.832;16.838;2022-09-13T18:19:38;22.60;73.20
32366;DHT22;18837;46.832;16.838;2022-09-13T18:22:05;22.50;73.50
32366;DHT22;18837;46.832;16.838;2022-09-13T18:24:30;22.50;73.70
32366;DHT22;18837;46.832;16.838;2022-09-13T18:26:58;22.40;74.10
32366;DHT22;18837;46.832;16.838;2022-09-13T18:29:44;22.30;74.00
32366;DHT22;18837;46.832;16.838;2022-09-13T18:32:29;22.30;74.80
32366;DHT22;18837;46.832;16.838;2022-09-13T18:34:56;22.30;74.70
32366;DHT22;18837;46.832;16.838;2022-09-13T18:37:23;22.20;74.90
32366;DHT22;18837;46.832;16.838;2022-09-13T18:39:49;22.10;74.70
32366;DHT22;18837;46.832;16.838;2022-09-13T18:42:15;22.10;74.80
32366;DHT22;18837;46.832;16.838;2022-09-13T18:44:41;22.10;74.80
32366;DHT22;18837;46.832;16.838;2022-09-13T18:47:06;22.10;75.00
32366;DHT22;18837;46.832;16.838;2022-09-13T18:49:46;22.10;74.70
32366;DHT22;18837;46.832;16.838;2022-09-13T18:52:11;22.10;74.70
32366;DHT22;18837;46.832;16.838;2022-09-13T18:54:37;22.20;74.60
32366;DHT22;18837;46.832;16.838;2022-09-13T18:57:03;22.30;74.50
32366;DHT22;18837;46.832;16.838;2022-09-13T18:59:28;22.30;74.30
32366;DHT22;18837;46.832;16.838;2022-09-13T19:01:58;22.40;74.10
32366;DHT22;18837;46.832;16.838;2022-09-13T19:04:43;22.40;74.50
32366;DHT22;18837;46.832;16.838;2022-09-13T19:07:28;22.40;74.20
32366;DHT22;18837;46.832;16.838;2022-09-13T19:09:53;22.40;73.80
32366;DHT22;18837;46.832;16.838;2022-09-13T19:12:21;22.50;73.80
32366;DHT22;18837;46.832;16.838;2022-09-13T19:14:47;22.50;73.50
32366;DHT22;18837;46.832;16.838;2022-09-13T19:17:14;22.50;73.90
32366;DHT22;18837;46.832;16.838;2022-09-13T19:19:40;22.50;73.50
32366;DHT22;18837;46.832;16.838;2022-09-13T19:22:12;22.50;73.50
32366;DHT22;18837;46.832;16.838;2022-09-13T19:24:40;22.50;73.40
32366;DHT22;18837;46.832;16.838;2022-09-13T19:27:05;22.50;73.40
32366;DHT22;18837;46.832;16.838;2022-09-13T19:29:31;22.50;73.40
32366;DHT22;18837;46.832;16.838;2022-09-13T19:31:57;22.40;73.50
32366;DHT22;18837;46.832;16.838;2022-09-13T19:34:23;22.40;73.60
32366;DHT22;18837;46.832;16.838;2022-09-13T19:36:49;22.30;73.80
32366;DHT22;18837;46.832;16.838;2022-09-13T19:42:37;22.20;75.10
32366;DHT22;18837;46.832;16.838;2022-09-13T19:45:04;22.10;74.90
32366;DHT22;18837;46.832;16.838;2022-09-13T19:47:30;22.00;74.90
32366;DHT22;18837;46.832;16.838;2022-09-13T19:49:56;22.00;75.10
32366;DHT22;18837;46.832;16.838;2022-09-13T19:52:23;22.00;75.00
32366;DHT22;18837;46.832;16.838;2022-09-13T19:54:49;21.90;75.10
32366;DHT22;18837;46.832;16.838;2022-09-13T19:57:25;21.90;75.20
32366;DHT22;18837;46.832;16.838;2022-09-13T19:59:51;21.90;75.20
32366;DHT22;18837;46.832;16.838;2022-09-13T20:02:17;21.90;75.60
32366;DHT22;18837;46.832;16.838;2022-09-13T20:04:45;21.90;75.20
32366;DHT22;18837;46.832;16.838;2022-09-13T20:07:11;21.90;75.10
32366;DHT22;18837;46.832;16.838;2022-09-13T20:09:38;22.00;75.10